createdAt,value
2022-10-18T00:00:19.972Z,5.03
2022-10-18T00:02:44.574Z,6.07
2022-10-18T00:05:08.708Z,5.72
2022-10-18T00:07:32.264Z,4.80
2022-10-18T00:09:55.749Z,10.35
2022-10-18T00:12:18.984Z,6.72
2022-10-18T00:14:42.332Z,6.38
2022-10-18T00:17:05.592Z,4.85
2022-10-18T00:19:30.144Z,10.20
2022-10-18T00:21:53.448Z,6.00
2022-10-18T00:24:17.068Z,6.18
2022-10-18T00:26:40.300Z,8.35
2022-10-18T00:29:06.436Z,6.63
2022-10-18T00:31:33.031Z,7.47
2022-10-18T00:33:58.613Z,5.38
2022-10-18T00:36:24.249Z,6.40
2022-10-18T00:38:48.320Z,5.72
2022-10-18T00:41:23.083Z,5.75
2022-10-18T00:43:59.590Z,5.20
2022-10-18T00:46:23.983Z,7.72
2022-10-18T00:48:47.615Z,8.27
2022-10-18T00:51:11.424Z,9.30
2022-10-18T00:53:36.097Z,7.57
2022-10-18T00:55:59.403Z,7.38
2022-10-18T00:58:22.685Z,9.73
2022-10-18T01:00:45.915Z,8.55
2022-10-18T01:03:10.468Z,6.32
2022-10-18T01:05:34.041Z,7.05
2022-10-18T01:08:16.277Z,6.20
2022-10-18T01:10:51.095Z,9.80
2022-10-18T01:13:33.258Z,9.05
2022-10-18T01:16:03.188Z,8.65
2022-10-18T01:18:32.439Z,5.50
2022-10-18T01:21:20.848Z,7.85
2022-10-18T01:24:31.384Z,8.25
2022-10-18T01:27:33.343Z,6.55
2022-10-18T01:30:33.614Z,5.18
2022-10-18T01:33:03.994Z,9.00
2022-10-18T01:35:34.445Z,8.57
2022-10-18T01:38:02.082Z,12.90
2022-10-18T01:40:26.579Z,8.75
2022-10-18T01:42:51.431Z,8.32
2022-10-18T01:45:16.457Z,10.43
2022-10-18T01:47:42.184Z,7.05
2022-10-18T01:50:08.993Z,6.97
2022-10-18T01:52:32.914Z,10.60
2022-10-18T01:54:57.718Z,7.38
2022-10-18T01:57:31.288Z,10.82
2022-10-18T02:00:01.711Z,10.80
2022-10-18T02:02:48.791Z,10.32
2022-10-18T02:05:25.939Z,6.57
2022-10-18T02:08:05.674Z,9.45
2022-10-18T02:10:42.986Z,9.88
2022-10-18T02:13:06.532Z,6.35
2022-10-18T02:15:34.459Z,11.02
2022-10-18T02:17:59.278Z,7.53
2022-10-18T02:20:26.030Z,13.13
2022-10-18T02:22:52.094Z,15.18
2022-10-18T02:25:22.729Z,9.60
2022-10-18T02:27:46.197Z,12.77
2022-10-18T02:30:11.322Z,14.00
2022-10-18T02:32:40.942Z,8.18
2022-10-18T02:35:10.815Z,8.55
2022-10-18T02:37:38.624Z,9.38
2022-10-18T02:40:02.387Z,8.93
2022-10-18T02:42:25.673Z,7.90
2022-10-18T02:44:48.867Z,6.75
2022-10-18T02:47:13.233Z,11.38
2022-10-18T02:49:36.524Z,8.48
2022-10-18T02:52:01.087Z,7.18
2022-10-18T02:54:25.337Z,12.10
2022-10-18T02:56:48.527Z,8.88
2022-10-18T02:59:12.806Z,7.88
2022-10-18T03:01:36.911Z,9.68
2022-10-18T03:04:00.224Z,14.35
2022-10-18T03:06:23.437Z,10.27
2022-10-18T03:08:48.099Z,7.97
2022-10-18T03:11:11.379Z,17.70
2022-10-18T03:13:34.833Z,10.57
2022-10-18T03:15:58.104Z,8.85
2022-10-18T03:18:21.339Z,14.95
2022-10-18T03:20:44.675Z,9.40
2022-10-18T03:23:08.197Z,9.05
2022-10-18T03:25:32.956Z,18.25
2022-10-18T03:27:56.172Z,10.15
2022-10-18T03:30:19.627Z,12.10
2022-10-18T03:32:43.321Z,19.40
2022-10-18T03:35:07.146Z,12.02
2022-10-18T03:37:30.375Z,14.38
2022-10-18T03:39:54.003Z,11.88
2022-10-18T03:42:18.564Z,23.67
2022-10-18T03:44:41.920Z,14.50
2022-10-18T03:47:05.146Z,11.68
2022-10-18T03:49:28.390Z,12.13
2022-10-18T03:51:51.675Z,9.52
2022-10-18T03:54:14.927Z,12.05
2022-10-18T03:56:38.190Z,11.95
2022-10-18T03:59:04.498Z,13.38
2022-10-18T04:01:27.817Z,18.33
2022-10-18T04:03:51.104Z,12.05
2022-10-18T04:06:14.321Z,14.82
2022-10-18T04:08:37.630Z,15.85
2022-10-18T04:11:00.863Z,12.38
2022-10-18T04:13:24.090Z,10.13
2022-10-18T04:15:48.641Z,13.90
2022-10-18T04:18:11.983Z,16.60
2022-10-18T04:20:35.264Z,18.20
2022-10-18T04:22:58.484Z,26.27
2022-10-18T04:25:21.885Z,31.75
2022-10-18T04:27:45.559Z,24.77
2022-10-18T04:30:10.503Z,34.08
2022-10-18T04:32:35.649Z,28.38
2022-10-18T04:34:58.893Z,32.20
2022-10-18T04:37:22.166Z,23.10
2022-10-18T04:39:51.173Z,23.02
2022-10-18T04:42:16.858Z,31.95
2022-10-18T04:44:40.145Z,21.98
2022-10-18T04:47:03.358Z,18.23
2022-10-18T04:49:28.185Z,23.02
2022-10-18T04:51:51.799Z,25.17
2022-10-18T04:54:15.084Z,16.35
2022-10-18T04:56:38.473Z,33.00
2022-10-18T04:59:01.716Z,29.25
2022-10-18T05:01:25.015Z,27.02
2022-10-18T05:03:53.331Z,18.73
2022-10-18T05:06:17.974Z,24.13
2022-10-18T05:08:41.160Z,23.75
2022-10-18T05:11:05.112Z,19.80
2022-10-18T05:13:29.803Z,22.42
2022-10-18T05:15:53.325Z,31.95
2022-10-18T05:18:16.638Z,17.92
2022-10-18T05:20:39.996Z,22.77
2022-10-18T05:23:04.702Z,33.75
2022-10-18T05:25:28.307Z,41.40
2022-10-18T05:27:51.512Z,21.73
2022-10-18T05:30:14.728Z,25.90
2022-10-18T05:32:37.934Z,18.48
2022-10-18T05:35:01.293Z,21.42
2022-10-18T05:37:28.242Z,52.03
2022-10-18T05:39:53.246Z,48.08
2022-10-18T05:42:16.554Z,35.90
2022-10-18T05:44:39.911Z,23.48
2022-10-18T05:47:03.235Z,24.15
2022-10-18T05:49:26.423Z,23.80
2022-10-18T05:51:49.777Z,22.73
2022-10-18T05:54:14.056Z,37.22
2022-10-18T05:59:10.412Z,43.50
2022-10-18T06:01:33.657Z,51.55
2022-10-18T06:03:56.839Z,33.70
2022-10-18T06:06:20.456Z,27.60
2022-10-18T06:08:45.054Z,28.75
2022-10-18T06:11:09.504Z,48.47
2022-10-18T06:13:34.148Z,41.22
2022-10-18T06:15:58.379Z,54.17
2022-10-18T06:18:21.613Z,64.72
2022-10-18T06:20:44.848Z,43.95
2022-10-18T06:23:08.420Z,54.58
2022-10-18T06:25:31.730Z,49.95
2022-10-18T06:27:54.943Z,29.40
2022-10-18T06:30:19.669Z,22.33
2022-10-18T06:32:42.907Z,31.45
2022-10-18T06:35:07.593Z,24.10
2022-10-18T06:37:31.542Z,28.42
2022-10-18T06:39:54.998Z,33.47
2022-10-18T06:42:20.449Z,36.22
2022-10-18T06:44:46.303Z,35.03
2022-10-18T06:47:11.606Z,52.78
2022-10-18T06:49:34.922Z,53.60
2022-10-18T06:51:58.153Z,41.88
2022-10-18T06:54:21.700Z,40.05
2022-10-18T06:56:44.936Z,31.92
2022-10-18T06:59:08.361Z,52.13
2022-10-18T07:01:31.815Z,35.78
2022-10-18T07:03:57.732Z,48.25
2022-10-18T07:06:21.727Z,46.30
2022-10-18T07:08:45.286Z,43.85
2022-10-18T07:11:09.760Z,49.30
2022-10-18T07:13:34.869Z,43.22
2022-10-18T07:16:11.724Z,28.70
2022-10-18T07:18:40.024Z,52.33
2022-10-18T07:21:07.187Z,43.05
2022-10-18T07:23:30.484Z,44.72
2022-10-18T07:25:53.807Z,46.15
2022-10-18T07:28:17.045Z,42.20
2022-10-18T07:30:40.384Z,49.05
2022-10-18T07:33:03.708Z,38.35
2022-10-18T07:35:27.172Z,40.95
2022-10-18T07:37:51.908Z,46.45
2022-10-18T07:40:15.372Z,48.33
2022-10-18T07:42:38.645Z,40.67
2022-10-18T07:45:02.322Z,40.20
2022-10-18T07:47:25.764Z,50.10
2022-10-18T07:49:49.033Z,78.93
2022-10-18T07:52:12.523Z,65.30
2022-10-18T07:54:37.161Z,70.80
2022-10-18T07:57:00.448Z,71.63
2022-10-18T07:59:23.736Z,67.47
2022-10-18T08:01:46.978Z,71.68
2022-10-18T08:04:15.414Z,86.57
2022-10-18T08:06:39.642Z,92.38
2022-10-18T08:09:03.424Z,105.32
2022-10-18T08:11:28.088Z,99.05
2022-10-18T08:13:52.457Z,95.70
2022-10-18T08:16:19.210Z,112.82
2022-10-18T08:18:42.934Z,123.85
2022-10-18T08:21:09.114Z,125.95
2022-10-18T08:23:32.368Z,124.80
2022-10-18T08:25:55.947Z,152.73
2022-10-18T08:28:20.774Z,139.93
2022-10-18T08:30:44.647Z,135.95
2022-10-18T08:33:07.952Z,135.32
2022-10-18T08:35:31.829Z,149.43
2022-10-18T08:37:55.380Z,103.68
2022-10-18T08:40:18.967Z,112.45
2022-10-18T08:43:00.440Z,111.13
2022-10-18T08:45:37.714Z,93.80
2022-10-18T08:48:07.216Z,119.50
2022-10-18T08:50:36.606Z,126.35
2022-10-18T08:53:07.415Z,123.25
2022-10-18T08:55:36.604Z,131.13
2022-10-18T08:57:59.939Z,141.80
2022-10-18T09:00:30.257Z,102.47
2022-10-18T09:03:12.912Z,110.40
2022-10-18T09:05:46.871Z,123.13
2022-10-18T09:08:38.762Z,100.10
2022-10-18T09:11:21.169Z,97.13
2022-10-18T09:14:33.466Z,85.72
2022-10-18T09:17:12.356Z,95.57
2022-10-18T09:20:07.496Z,112.45
2022-10-18T09:22:48.083Z,105.72
2022-10-18T09:25:19.164Z,95.78
2022-10-18T09:27:53.418Z,104.72
2022-10-18T09:30:30.929Z,99.78
2022-10-18T09:33:04.891Z,112.72
2022-10-18T09:35:33.696Z,108.18
2022-10-18T09:38:04.625Z,127.95
2022-10-18T09:40:32.303Z,111.90
2022-10-18T09:43:01.509Z,119.72
2022-10-18T09:45:30.445Z,102.55
2022-10-18T09:48:04.733Z,101.78
2022-10-18T09:50:33.768Z,98.45
2022-10-18T09:53:07.988Z,111.88
2022-10-18T09:55:41.340Z,103.53
2022-10-18T09:58:09.270Z,101.00
2022-10-18T10:00:45.945Z,89.72
2022-10-18T10:03:14.764Z,86.78
2022-10-18T10:05:38.276Z,87.80
2022-10-18T10:08:02.438Z,88.47
2022-10-18T10:10:28.704Z,70.03
2022-10-18T10:13:06.694Z,75.47
2022-10-18T10:15:35.324Z,79.13
2022-10-18T10:18:06.088Z,79.45
2022-10-18T10:20:37.717Z,78.50
2022-10-18T10:23:08.881Z,67.45
2022-10-18T10:25:36.066Z,60.83
2022-10-18T10:28:05.063Z,62.10
2022-10-18T10:30:31.589Z,61.17
2022-10-18T10:32:56.365Z,55.55
2022-10-18T10:35:52.659Z,61.22
2022-10-18T10:38:25.963Z,54.80
2022-10-18T10:40:51.048Z,44.55
2022-10-18T10:43:36.612Z,43.10
2022-10-18T10:46:04.679Z,41.58
2022-10-18T10:48:33.153Z,45.28
2022-10-18T10:51:05.688Z,41.50
2022-10-18T10:53:41.215Z,38.83
2022-10-18T10:56:07.561Z,35.33
2022-10-18T10:58:37.612Z,35.17
2022-10-18T11:01:40.350Z,32.67
2022-10-18T11:04:24.892Z,31.98
2022-10-18T11:06:59.025Z,31.25
2022-10-18T11:09:51.306Z,28.75
2022-10-18T11:12:28.134Z,34.67
2022-10-18T11:15:00.780Z,26.77
2022-10-18T11:17:34.376Z,24.55
2022-10-18T11:20:12.163Z,29.77
2022-10-18T11:22:44.329Z,22.73
2022-10-18T11:25:14.679Z,28.10
2022-10-18T11:27:44.264Z,22.02
2022-10-18T11:30:38.342Z,23.25
2022-10-18T11:33:15.462Z,24.58
2022-10-18T11:35:47.910Z,21.20
2022-10-18T11:38:33.039Z,22.23
2022-10-18T11:41:14.146Z,26.73
2022-10-18T11:44:01.728Z,26.23
2022-10-18T11:46:48.632Z,25.92
2022-10-18T11:49:35.425Z,28.60
2022-10-18T11:52:09.720Z,23.13
2022-10-18T11:54:58.894Z,123.63
2022-10-18T11:57:44.332Z,25.33
2022-10-18T12:00:39.545Z,26.05
2022-10-18T12:03:21.465Z,25.45
2022-10-18T12:05:47.075Z,30.05
2022-10-18T12:08:14.949Z,17.42
2022-10-18T12:11:04.072Z,22.23
2022-10-18T12:13:36.230Z,21.52
2022-10-18T12:15:59.774Z,27.63
2022-10-18T12:18:26.844Z,34.13
2022-10-18T12:20:52.741Z,53.53
2022-10-18T12:23:19.276Z,20.70
2022-10-18T12:25:47.799Z,22.75
2022-10-18T12:28:21.914Z,25.35
2022-10-18T12:30:53.297Z,24.02
2022-10-18T12:33:28.180Z,21.65
2022-10-18T12:36:04.175Z,21.40
2022-10-18T12:38:30.885Z,17.55
2022-10-18T12:40:56.733Z,19.23
2022-10-18T12:43:25.363Z,17.42
2022-10-18T12:45:53.825Z,17.45
2022-10-18T12:48:35.180Z,18.05
2022-10-18T12:51:01.950Z,24.70
2022-10-18T12:53:27.847Z,23.52
2022-10-18T12:55:53.667Z,25.33
2022-10-18T12:58:30.971Z,24.05
2022-10-18T13:00:57.751Z,20.15
2022-10-18T13:04:00.402Z,21.02
2022-10-18T13:06:24.974Z,21.88
2022-10-18T13:08:51.050Z,22.35
2022-10-18T13:11:36.790Z,26.27
2022-10-18T13:14:23.003Z,19.20
2022-10-18T13:16:51.274Z,18.70
2022-10-18T13:19:26.692Z,22.90
2022-10-18T13:22:02.286Z,22.40
2022-10-18T13:24:34.144Z,23.20
2022-10-18T13:27:37.031Z,23.40
2022-10-18T13:30:23.871Z,24.30
2022-10-18T13:32:57.428Z,20.40
2022-10-18T13:35:50.090Z,22.17
2022-10-18T13:38:47.877Z,25.75
2022-10-18T13:41:15.230Z,22.35
2022-10-18T13:44:12.292Z,20.30
2022-10-18T13:47:26.420Z,20.60
2022-10-18T13:50:12.276Z,18.02
2022-10-18T13:53:19.048Z,20.38
2022-10-18T13:56:45.448Z,17.38
2022-10-18T13:59:27.797Z,16.40
2022-10-18T14:02:15.072Z,16.58
2022-10-18T14:05:16.604Z,18.17
2022-10-18T14:07:45.765Z,17.10
2022-10-18T14:10:18.707Z,21.45
2022-10-18T14:12:45.812Z,16.65
2022-10-18T14:15:18.015Z,14.38
2022-10-18T14:17:46.302Z,11.48
2022-10-18T14:20:27.238Z,9.82
2022-10-18T14:22:58.985Z,11.60
2022-10-18T14:25:28.084Z,14.95
2022-10-18T14:28:13.962Z,12.75
2022-10-18T14:30:38.227Z,7.00
2022-10-18T14:33:01.488Z,12.25
2022-10-18T14:35:33.581Z,11.60
2022-10-18T14:37:58.373Z,11.35
2022-10-18T14:40:31.603Z,11.27
2022-10-18T14:42:55.035Z,9.93
2022-10-18T14:45:21.287Z,10.70
2022-10-18T14:47:46.984Z,12.80
2022-10-18T14:50:23.103Z,9.88
2022-10-18T14:52:47.773Z,9.68
2022-10-18T14:55:19.874Z,12.55
2022-10-18T14:57:43.379Z,11.65
2022-10-18T15:00:15.305Z,16.52
2022-10-18T15:02:40.190Z,10.35
2022-10-18T15:05:09.420Z,12.20
2022-10-18T15:07:33.543Z,9.90
2022-10-18T15:10:01.293Z,13.57
2022-10-18T15:12:25.015Z,12.20
2022-10-18T15:14:49.204Z,9.85
2022-10-18T15:17:19.063Z,15.32
2022-10-18T15:19:59.418Z,10.00
2022-10-18T15:22:31.638Z,11.65
2022-10-18T15:25:19.297Z,12.43
2022-10-18T15:27:45.670Z,11.65
2022-10-18T15:30:11.159Z,13.15
2022-10-18T15:32:34.700Z,10.98
2022-10-18T15:35:10.257Z,9.60
2022-10-18T15:37:39.857Z,7.50
2022-10-18T15:40:36.234Z,10.48
2022-10-18T15:43:02.405Z,12.60
2022-10-18T15:45:39.770Z,10.93
2022-10-18T15:48:20.009Z,8.57
2022-10-18T15:50:44.919Z,12.93
2022-10-18T15:53:44.523Z,14.48
2022-10-18T15:56:14.885Z,17.05
2022-10-18T15:58:44.897Z,9.55
2022-10-18T16:01:16.949Z,9.02
2022-10-18T16:03:40.578Z,10.65
2022-10-18T16:06:08.308Z,15.15
2022-10-18T16:08:32.444Z,15.23
2022-10-18T16:10:55.719Z,21.63
2022-10-18T16:13:20.669Z,20.52
2022-10-18T16:15:44.192Z,17.95
2022-10-18T16:18:07.831Z,12.70
2022-10-18T16:20:31.022Z,14.15
2022-10-18T16:22:54.316Z,13.07
2022-10-18T16:25:18.072Z,25.38
2022-10-18T16:27:41.425Z,10.93
2022-10-18T16:30:12.382Z,9.13
2022-10-18T16:32:35.621Z,10.05
2022-10-18T16:34:58.887Z,9.32
2022-10-18T16:37:22.159Z,10.55
2022-10-18T16:39:45.375Z,10.75
2022-10-18T16:42:09.049Z,13.15
2022-10-18T16:44:32.305Z,9.80
2022-10-18T16:46:57.060Z,12.50
2022-10-18T16:49:23.729Z,15.18
2022-10-18T16:51:47.611Z,11.02
2022-10-18T16:54:10.885Z,7.72
2022-10-18T16:56:35.106Z,11.00
2022-10-18T16:58:59.162Z,12.00
2022-10-18T17:01:24.857Z,13.77
2022-10-18T17:03:52.068Z,9.98
2022-10-18T17:06:18.248Z,10.70
2022-10-18T17:08:41.475Z,11.57
2022-10-18T17:11:04.765Z,13.00
2022-10-18T17:13:28.444Z,16.77
2022-10-18T17:15:52.592Z,12.07
2022-10-18T17:18:20.276Z,15.20
2022-10-18T17:20:45.680Z,12.43
2022-10-18T17:23:09.783Z,11.95
2022-10-18T17:25:33.062Z,17.13
2022-10-18T17:27:56.307Z,17.83
2022-10-18T17:30:19.751Z,15.18
2022-10-18T17:32:44.593Z,15.73
2022-10-18T17:35:08.655Z,14.73
2022-10-18T17:37:33.539Z,11.60
2022-10-18T17:39:57.455Z,11.48
2022-10-18T17:42:21.630Z,12.02
2022-10-18T17:44:46.170Z,12.02
2022-10-18T17:47:09.482Z,11.63
2022-10-18T17:49:32.877Z,14.73
2022-10-18T17:52:01.141Z,9.75
2022-10-18T17:54:29.324Z,11.25
2022-10-18T17:56:53.797Z,10.70
2022-10-18T17:59:18.003Z,12.07
2022-10-18T18:01:41.370Z,15.90
2022-10-18T18:04:04.920Z,24.80
2022-10-18T18:06:31.717Z,14.57
2022-10-18T18:08:54.996Z,13.30
2022-10-18T18:11:19.656Z,19.02
2022-10-18T18:13:42.921Z,20.70
2022-10-18T18:16:18.381Z,19.15
2022-10-18T18:18:41.858Z,18.80
2022-10-18T18:21:05.278Z,21.80
2022-10-18T18:23:28.580Z,18.33
2022-10-18T18:25:57.480Z,18.15
2022-10-18T18:28:22.056Z,16.50
2022-10-18T18:30:45.300Z,13.90
2022-10-18T18:33:08.512Z,12.65
2022-10-18T18:35:31.772Z,10.15
2022-10-18T18:37:55.028Z,14.57
2022-10-18T18:40:18.400Z,12.90
2022-10-18T18:42:41.585Z,12.88
2022-10-18T18:45:07.802Z,10.52
2022-10-18T18:47:35.281Z,18.15
2022-10-18T18:49:58.558Z,11.10
2022-10-18T18:52:21.799Z,11.90
2022-10-18T18:54:45.052Z,15.23
2022-10-18T18:57:08.307Z,11.95
2022-10-18T18:59:31.945Z,13.50
2022-10-18T19:01:56.642Z,13.07
2022-10-18T19:04:19.915Z,20.08
2022-10-18T19:06:46.097Z,24.02
2022-10-18T19:09:18.572Z,18.30
2022-10-18T19:11:41.942Z,21.02
2022-10-18T19:14:06.310Z,19.65
2022-10-18T19:16:31.739Z,15.93
2022-10-18T19:19:02.852Z,17.40
2022-10-18T19:21:28.424Z,16.30
2022-10-18T19:23:51.708Z,18.13
2022-10-18T19:26:25.240Z,14.00
2022-10-18T19:28:48.575Z,14.40
2022-10-18T19:31:11.796Z,12.18
2022-10-18T19:33:47.943Z,18.52
2022-10-18T19:36:19.852Z,22.60
2022-10-18T19:38:43.074Z,16.00
2022-10-18T19:41:06.559Z,11.43
2022-10-18T19:43:30.075Z,16.63
2022-10-18T19:45:53.323Z,13.60
2022-10-18T19:48:16.547Z,18.13
2022-10-18T19:50:39.785Z,15.13
2022-10-18T19:53:04.530Z,16.02
2022-10-18T19:55:27.928Z,17.50
2022-10-18T19:57:51.132Z,14.02
2022-10-18T20:00:18.770Z,17.80
2022-10-18T20:02:42.803Z,12.77
2022-10-18T20:05:07.067Z,16.63
2022-10-18T20:07:30.227Z,13.02
2022-10-18T20:09:54.911Z,16.80
2022-10-18T20:12:18.114Z,15.23
2022-10-18T20:14:41.409Z,26.98
2022-10-18T20:17:05.767Z,17.40
2022-10-18T20:19:28.926Z,26.02
2022-10-18T20:21:52.129Z,17.95
2022-10-18T20:24:15.416Z,18.08
2022-10-18T20:26:40.521Z,17.08
2022-10-18T20:29:04.738Z,17.23
2022-10-18T20:31:30.304Z,14.27
2022-10-18T20:33:56.474Z,13.00
2022-10-18T20:36:20.622Z,14.77
2022-10-18T20:38:46.402Z,11.07
2022-10-18T20:41:12.536Z,15.70
2022-10-18T20:43:37.784Z,11.27
2022-10-18T20:46:02.032Z,20.45
2022-10-18T20:48:25.305Z,25.35
2022-10-18T20:50:48.521Z,21.90
2022-10-18T20:53:11.737Z,24.98
2022-10-18T20:55:36.437Z,18.05
2022-10-18T20:57:59.708Z,17.20
2022-10-18T21:00:24.515Z,16.50
2022-10-18T21:02:47.888Z,18.95
2022-10-18T21:05:11.944Z,19.95
2022-10-18T21:07:35.776Z,13.70
2022-10-18T21:09:59.222Z,14.38
2022-10-18T21:12:23.391Z,16.65
2022-10-18T21:14:47.930Z,14.23
2022-10-18T21:17:12.540Z,17.05
2022-10-18T21:19:36.039Z,14.35
2022-10-18T21:21:59.407Z,17.67
2022-10-18T21:24:24.952Z,13.27
2022-10-18T21:26:48.798Z,14.02
2022-10-18T21:29:18.137Z,9.05
2022-10-18T21:31:46.204Z,12.05
2022-10-18T21:34:15.239Z,13.13
2022-10-18T21:36:39.082Z,11.95
2022-10-18T21:39:03.610Z,11.95
2022-10-18T21:41:27.172Z,11.07
2022-10-18T21:43:52.985Z,10.77
2022-10-18T21:46:18.706Z,12.15
2022-10-18T21:48:45.585Z,10.63
2022-10-18T21:51:10.783Z,17.30
2022-10-18T21:53:34.416Z,9.35
2022-10-18T21:55:57.707Z,7.53
2022-10-18T21:58:21.085Z,15.13
2022-10-18T22:00:44.359Z,11.00
2022-10-18T22:03:08.886Z,10.43
2022-10-18T22:05:32.053Z,15.27
2022-10-18T22:07:56.649Z,12.10
2022-10-18T22:10:19.820Z,10.07
2022-10-18T22:12:43.035Z,8.20
2022-10-18T22:15:07.640Z,11.25
2022-10-18T22:17:31.073Z,9.27
2022-10-18T22:19:54.545Z,16.63
2022-10-18T22:22:18.213Z,13.55
2022-10-18T22:24:42.789Z,18.42
2022-10-18T22:27:06.109Z,23.33
2022-10-18T22:29:29.435Z,24.13
2022-10-18T22:31:55.030Z,22.73
2022-10-18T22:34:21.493Z,23.98
2022-10-18T22:36:45.107Z,22.15
2022-10-18T22:39:08.889Z,25.80
2022-10-18T22:41:33.968Z,29.83
2022-10-18T22:43:59.755Z,31.83
2022-10-18T22:46:26.033Z,36.03
2022-10-18T22:48:49.846Z,32.03
2022-10-18T22:51:13.928Z,23.48
2022-10-18T22:53:38.340Z,16.20
2022-10-18T22:56:01.709Z,20.95
2022-10-18T22:58:26.897Z,13.55
2022-10-18T23:00:50.269Z,13.20
2022-10-18T23:03:16.017Z,13.40
2022-10-18T23:05:39.981Z,12.70
2022-10-18T23:08:03.240Z,16.42
2022-10-18T23:10:26.529Z,9.30
2022-10-18T23:12:49.808Z,11.93
2022-10-18T23:15:14.490Z,12.77
2022-10-18T23:17:37.826Z,11.90
2022-10-18T23:20:01.116Z,13.27
2022-10-18T23:22:24.426Z,13.93
2022-10-18T23:24:47.717Z,11.25
2022-10-18T23:27:11.387Z,14.35
2022-10-18T23:29:34.621Z,10.32
2022-10-18T23:31:59.164Z,14.82
2022-10-18T23:34:22.454Z,10.85
2022-10-18T23:36:45.800Z,6.97
2022-10-18T23:39:09.456Z,12.18
2022-10-18T23:41:32.683Z,11.40
2022-10-18T23:43:56.466Z,11.32
2022-10-18T23:46:20.624Z,12.65
2022-10-18T23:48:45.599Z,12.88
2022-10-18T23:51:09.169Z,11.35
2022-10-18T23:53:32.862Z,13.55
2022-10-18T23:55:58.405Z,10.40
2022-10-18T23:58:22.083Z,10.65
